createdAt,value
2019-02-06T00:02:15.414Z,60.92
2019-02-06T00:05:21.172Z,61.05
2019-02-06T00:08:27.146Z,60.68
2019-02-06T00:11:34.918Z,60.08
2019-02-06T00:14:40.536Z,59.96
2019-02-06T00:17:46.406Z,61.86
2019-02-06T00:20:52.296Z,60.71
2019-02-06T00:23:58.072Z,60.16
2019-02-06T00:27:04.003Z,60.38
2019-02-06T00:30:11.489Z,59.98
2019-02-06T00:33:17.272Z,59.74
2019-02-06T00:36:23.019Z,59.61
2019-02-06T00:39:30.286Z,60.64
2019-02-06T00:42:36.047Z,60.63
2019-02-06T00:45:41.902Z,60.50
2019-02-06T00:48:47.701Z,60.76
2019-02-06T00:51:53.454Z,60.45
2019-02-06T00:54:59.237Z,60.95
2019-02-06T00:58:05.302Z,61.16
2019-02-06T01:01:11.341Z,60.68
2019-02-06T01:04:17.322Z,62.53
2019-02-06T01:07:23.068Z,61.56
2019-02-06T01:10:29.331Z,61.85
2019-02-06T01:13:35.092Z,60.40
2019-02-06T01:16:41.084Z,60.07
2019-02-06T01:19:47.025Z,60.96
2019-02-06T01:22:52.771Z,62.08
2019-02-06T01:25:58.567Z,62.91
2019-02-06T01:29:05.522Z,63.03
2019-02-06T01:32:11.477Z,61.04
2019-02-06T01:35:17.423Z,59.63
2019-02-06T01:38:23.305Z,59.22
2019-02-06T01:41:29.059Z,59.36
2019-02-06T01:44:35.075Z,59.23
2019-02-06T01:47:41.145Z,60.32
2019-02-06T01:50:47.039Z,60.32
2019-02-06T01:53:52.882Z,60.29
2019-02-06T01:56:58.639Z,60.87
2019-02-06T02:00:08.092Z,59.47
2019-02-06T02:03:13.941Z,59.69
2019-02-06T02:06:20.716Z,59.28
2019-02-06T02:09:26.481Z,59.59
2019-02-06T02:12:32.340Z,59.72
2019-02-06T02:15:38.204Z,59.70
2019-02-06T02:18:43.954Z,59.53
2019-02-06T02:21:49.720Z,60.63
2019-02-06T02:24:55.470Z,61.03
2019-02-06T02:28:01.234Z,60.73
2019-02-06T02:31:07.668Z,60.27
2019-02-06T02:34:13.416Z,59.94
2019-02-06T02:37:19.202Z,60.58
2019-02-06T02:40:25.076Z,60.23
2019-02-06T02:43:30.930Z,60.50
2019-02-06T02:46:36.760Z,61.30
2019-02-06T02:49:42.522Z,60.85
2019-02-06T02:52:48.501Z,60.64
2019-02-06T02:55:54.409Z,61.35
2019-02-06T02:59:00.180Z,61.27
2019-02-06T03:02:20.237Z,60.64
2019-02-06T03:05:28.518Z,59.91
2019-02-06T03:08:34.398Z,60.58
2019-02-06T03:11:40.324Z,60.09
2019-02-06T03:14:46.107Z,60.04
2019-02-06T03:17:51.975Z,60.17
2019-02-06T03:20:57.898Z,60.01
2019-02-06T03:24:04.171Z,61.31
2019-02-06T03:27:10.036Z,62.21
2019-02-06T03:30:16.795Z,61.19
2019-02-06T03:33:22.853Z,60.72
2019-02-06T03:36:39.859Z,61.01
2019-02-06T03:39:36.158Z,62.22
2019-02-06T03:42:42.107Z,61.26
2019-02-06T03:45:47.999Z,60.98
2019-02-06T03:48:53.779Z,60.54
2019-02-06T03:51:59.557Z,60.11
2019-02-06T03:55:06.343Z,61.62
2019-02-06T03:58:12.094Z,61.78
2019-02-06T04:01:17.844Z,62.00
2019-02-06T04:04:23.663Z,61.22
2019-02-06T04:07:29.431Z,62.25
2019-02-06T04:10:35.315Z,63.59
2019-02-06T04:13:41.193Z,61.93
2019-02-06T04:16:46.990Z,61.03
2019-02-06T04:19:52.761Z,61.40
2019-02-06T04:22:58.521Z,61.73
2019-02-06T04:26:04.434Z,62.33
2019-02-06T04:29:10.213Z,61.47
2019-02-06T04:32:16.262Z,61.56
2019-02-06T04:35:22.524Z,61.37
2019-02-06T04:38:28.299Z,62.16
2019-02-06T04:41:34.075Z,62.36
2019-02-06T04:44:39.838Z,60.76
2019-02-06T04:47:45.836Z,61.16
2019-02-06T04:50:51.593Z,61.44
2019-02-06T04:53:57.496Z,61.64
2019-02-06T04:57:03.281Z,61.38
2019-02-06T05:00:26.061Z,61.65
2019-02-06T05:03:31.841Z,62.23
2019-02-06T05:06:37.714Z,61.77
2019-02-06T05:09:43.513Z,62.34
2019-02-06T05:12:49.286Z,62.25
2019-02-06T05:15:55.190Z,61.74
2019-02-06T05:19:00.968Z,61.66
2019-02-06T05:22:06.850Z,62.15
2019-02-06T05:25:12.707Z,61.56
2019-02-06T05:28:19.062Z,61.77
2019-02-06T05:31:24.877Z,61.39
2019-02-06T05:34:30.705Z,60.95
2019-02-06T05:37:36.787Z,61.06
2019-02-06T05:40:42.544Z,62.44
2019-02-06T05:43:48.296Z,62.89
2019-02-06T05:46:54.100Z,61.87
2019-02-06T05:49:59.883Z,62.19
2019-02-06T05:53:05.860Z,62.61
2019-02-06T05:56:11.719Z,63.82
2019-02-06T05:59:17.482Z,62.78
2019-02-06T06:02:23.278Z,63.07
2019-02-06T06:05:29.145Z,62.48
2019-02-06T06:08:34.901Z,62.82
2019-02-06T06:11:40.656Z,62.50
2019-02-06T06:14:46.413Z,62.86
2019-02-06T06:17:52.263Z,61.99
2019-02-06T06:20:58.034Z,62.98
2019-02-06T06:24:04.044Z,64.14
2019-02-06T06:27:09.908Z,63.60
2019-02-06T06:30:17.482Z,63.42
2019-02-06T06:33:23.248Z,63.06
2019-02-06T06:36:29.440Z,63.58
2019-02-06T06:39:35.184Z,64.81
2019-02-06T06:42:41.051Z,63.60
2019-02-06T06:45:46.802Z,63.50
2019-02-06T06:48:52.578Z,62.55
2019-02-06T06:51:58.444Z,62.59
2019-02-06T06:55:04.317Z,64.67
2019-02-06T06:58:10.223Z,63.03
2019-02-06T07:01:16.139Z,62.44
2019-02-06T07:04:22.020Z,61.95
2019-02-06T07:07:27.909Z,63.33
2019-02-06T07:10:33.701Z,63.46
2019-02-06T07:13:39.463Z,63.65
2019-02-06T07:16:45.587Z,64.37
2019-02-06T07:19:51.382Z,63.77
2019-02-06T07:22:57.138Z,63.61
2019-02-06T07:26:02.995Z,63.49
2019-02-06T07:29:08.976Z,63.63
2019-02-06T07:32:14.787Z,63.47
2019-02-06T07:35:20.662Z,63.02
2019-02-06T07:38:26.465Z,63.10
2019-02-06T07:41:32.296Z,62.55
2019-02-06T07:44:38.045Z,62.65
2019-02-06T07:47:43.926Z,62.58
2019-02-06T07:50:50.702Z,61.92
2019-02-06T07:53:56.495Z,61.75
2019-02-06T07:57:02.547Z,61.48
2019-02-06T08:00:08.835Z,61.17
2019-02-06T08:03:14.621Z,60.90
2019-02-06T08:06:20.518Z,61.47
2019-02-06T08:09:26.284Z,61.44
2019-02-06T08:12:32.099Z,61.62
2019-02-06T08:15:37.846Z,61.16
2019-02-06T08:18:43.614Z,61.53
2019-02-06T08:21:49.887Z,62.01
2019-02-06T08:24:55.725Z,63.52
2019-02-06T08:28:01.598Z,62.54
2019-02-06T08:31:07.352Z,62.62
2019-02-06T08:34:14.311Z,61.76
2019-02-06T08:37:20.283Z,62.05
2019-02-06T08:40:26.864Z,61.78
2019-02-06T08:43:32.634Z,61.78
2019-02-06T08:46:38.394Z,61.54
2019-02-06T08:49:44.364Z,61.04
2019-02-06T08:52:50.260Z,60.53
2019-02-06T08:55:56.045Z,61.20
2019-02-06T08:59:02.931Z,61.63
2019-02-06T09:02:08.939Z,63.19
2019-02-06T09:05:14.923Z,61.81
2019-02-06T09:08:21.354Z,62.54
2019-02-06T09:11:27.160Z,62.74
2019-02-06T09:14:32.932Z,63.92
2019-02-06T09:17:38.952Z,63.86
2019-02-06T09:20:44.799Z,63.74
2019-02-06T09:23:50.581Z,63.52
2019-02-06T09:26:56.352Z,63.45
2019-02-06T09:30:02.124Z,63.30
2019-02-06T09:33:08.491Z,63.00
2019-02-06T09:36:14.302Z,63.19
2019-02-06T09:39:20.210Z,64.24
2019-02-06T09:42:25.996Z,64.07
2019-02-06T09:45:31.983Z,64.66
2019-02-06T09:48:37.778Z,65.77
2019-02-06T09:51:43.707Z,65.45
2019-02-06T09:54:50.541Z,65.09
2019-02-06T09:57:56.736Z,64.96
2019-02-06T10:01:02.554Z,65.97
2019-02-06T10:04:08.320Z,64.97
2019-02-06T10:07:14.151Z,65.88
2019-02-06T10:10:21.321Z,65.31
2019-02-06T10:13:27.102Z,65.40
2019-02-06T10:16:32.856Z,65.58
2019-02-06T10:19:38.926Z,65.70
2019-02-06T10:22:44.901Z,65.40
2019-02-06T10:25:53.670Z,65.52
2019-02-06T10:28:59.232Z,64.69
2019-02-06T10:32:05.175Z,63.64
2019-02-06T10:35:11.236Z,65.85
2019-02-06T10:38:19.051Z,66.00
2019-02-06T10:41:24.845Z,64.98
2019-02-06T10:44:30.754Z,65.16
2019-02-06T10:47:36.868Z,65.65
2019-02-06T10:50:45.787Z,66.49
2019-02-06T10:53:51.799Z,65.58
2019-02-06T10:56:57.737Z,66.22
2019-02-06T11:00:05.718Z,68.54
2019-02-06T11:03:13.477Z,67.62
2019-02-06T11:06:19.277Z,68.04
2019-02-06T11:09:25.269Z,67.27
2019-02-06T11:12:31.033Z,68.46
2019-02-06T11:15:37.043Z,69.14
2019-02-06T11:18:44.575Z,68.63
2019-02-06T11:21:50.624Z,69.87
2019-02-06T11:24:56.610Z,69.36
2019-02-06T11:28:02.370Z,68.85
2019-02-06T11:31:08.609Z,68.30
2019-02-06T11:34:14.568Z,67.59
2019-02-06T11:37:20.395Z,67.94
2019-02-06T11:40:26.453Z,69.92
2019-02-06T11:43:32.475Z,69.14
2019-02-06T11:46:38.235Z,68.44
2019-02-06T11:49:44.590Z,69.05
2019-02-06T11:52:50.687Z,69.43
2019-02-06T11:55:57.268Z,68.54
2019-02-06T11:59:03.045Z,69.97
2019-02-06T12:02:09.274Z,68.14
2019-02-06T12:05:15.467Z,67.80
2019-02-06T12:08:21.326Z,68.76
2019-02-06T12:11:27.614Z,68.01
2019-02-06T12:14:33.385Z,68.16
2019-02-06T12:17:39.313Z,67.49
2019-02-06T12:20:45.335Z,65.87
2019-02-06T12:23:51.106Z,66.84
2019-02-06T12:26:57.070Z,67.08
2019-02-06T12:30:02.989Z,65.98
2019-02-06T12:33:10.363Z,64.57
2019-02-06T12:36:16.110Z,63.83
2019-02-06T12:39:22.757Z,63.15
2019-02-06T12:42:28.806Z,64.88
2019-02-06T12:45:34.689Z,65.04
2019-02-06T12:48:40.476Z,63.99
2019-02-06T12:51:46.373Z,62.65
2019-02-06T12:54:52.189Z,63.89
2019-02-06T12:57:58.115Z,64.37
2019-02-06T13:01:04.385Z,62.77
2019-02-06T13:04:10.180Z,62.11
2019-02-06T13:07:15.964Z,63.11
2019-02-06T13:10:32.864Z,62.35
2019-02-06T13:13:29.715Z,61.86
2019-02-06T13:16:35.617Z,61.49
2019-02-06T13:19:41.607Z,60.42
2019-02-06T13:22:47.652Z,60.93
2019-02-06T13:25:53.422Z,61.65
2019-02-06T13:28:59.283Z,61.48
2019-02-06T13:32:05.266Z,60.99
2019-02-06T13:35:12.511Z,59.91
2019-02-06T13:38:18.435Z,60.13
2019-02-06T13:41:24.215Z,60.24
2019-02-06T13:44:30.147Z,60.18
2019-02-06T13:47:36.014Z,59.78
2019-02-06T13:50:42.310Z,60.35
2019-02-06T13:53:48.094Z,60.52
2019-02-06T13:56:53.986Z,61.30
2019-02-06T13:59:59.803Z,62.37
2019-02-06T14:03:06.845Z,62.18
2019-02-06T14:06:14.016Z,61.37
2019-02-06T14:09:22.683Z,59.93
2019-02-06T14:12:27.591Z,59.37
2019-02-06T14:15:36.605Z,59.50
2019-02-06T14:18:42.393Z,59.21
2019-02-06T14:21:48.166Z,59.33
2019-02-06T14:25:15.089Z,60.23
2019-02-06T14:29:03.418Z,59.87
2019-02-06T14:32:26.846Z,60.71
2019-02-06T14:36:16.061Z,59.99
2019-02-06T14:40:01.658Z,59.95
2019-02-06T14:44:01.563Z,59.84
2019-02-06T14:47:33.564Z,60.29
2019-02-06T14:51:08.029Z,60.32
2019-02-06T14:54:26.759Z,60.21
2019-02-06T14:57:52.377Z,60.71
2019-02-06T15:01:57.106Z,61.78
2019-02-06T15:05:27.062Z,61.90
2019-02-06T15:09:23.228Z,62.88
2019-02-06T15:13:12.384Z,63.29
2019-02-06T15:17:05.094Z,63.78
2019-02-06T15:20:28.244Z,62.44
2019-02-06T15:23:55.025Z,62.76
2019-02-06T15:27:41.072Z,63.54
2019-02-06T15:31:38.443Z,62.97
2019-02-06T15:35:06.824Z,61.33
2019-02-06T15:39:08.483Z,65.95
2019-02-06T15:42:43.291Z,65.08
2019-02-06T15:46:27.986Z,64.76
2019-02-06T15:50:10.198Z,64.20
2019-02-06T15:53:34.937Z,63.74
2019-02-06T15:57:05.095Z,63.20
2019-02-06T16:00:43.651Z,65.01
2019-02-06T16:04:52.605Z,65.67
2019-02-06T16:08:37.686Z,64.48
2019-02-06T16:12:45.684Z,63.13
2019-02-06T16:16:43.625Z,62.83
2019-02-06T16:20:48.816Z,63.27
2019-02-06T16:24:35.601Z,62.38
2019-02-06T16:28:18.405Z,64.36
2019-02-06T16:32:07.997Z,63.25
2019-02-06T16:35:57.585Z,63.23
2019-02-06T16:39:53.145Z,65.15
2019-02-06T16:43:32.886Z,63.45
2019-02-06T16:47:18.909Z,63.61
2019-02-06T16:50:39.569Z,65.43
2019-02-06T16:54:31.886Z,64.69
2019-02-06T16:58:03.071Z,63.62
2019-02-06T17:01:55.735Z,64.18
2019-02-06T17:05:42.398Z,63.80
2019-02-06T17:09:17.781Z,63.69
2019-02-06T17:12:49.007Z,63.57
2019-02-06T17:16:25.408Z,64.12
2019-02-06T17:20:17.695Z,63.42
2019-02-06T17:24:00.990Z,62.34
2019-02-06T17:27:38.674Z,65.20
2019-02-06T17:31:21.288Z,64.68
2019-02-06T17:35:00.719Z,65.16
2019-02-06T17:38:25.581Z,66.30
2019-02-06T17:42:15.482Z,65.14
2019-02-06T17:45:49.992Z,64.44
2019-02-06T17:49:28.571Z,65.42
2019-02-06T17:52:59.383Z,64.96
2019-02-06T17:56:06.130Z,65.15
2019-02-06T17:59:11.995Z,64.35
2019-02-06T18:02:17.803Z,64.49
2019-02-06T18:05:23.559Z,64.49
2019-02-06T18:08:29.461Z,64.76
2019-02-06T18:11:35.361Z,64.40
2019-02-06T18:14:41.259Z,64.48
2019-02-06T18:17:47.055Z,64.12
2019-02-06T18:20:52.811Z,63.97
2019-02-06T18:23:58.574Z,65.32
2019-02-06T18:27:05.692Z,64.32
2019-02-06T18:30:15.008Z,65.05
2019-02-06T18:33:21.057Z,63.84
2019-02-06T18:36:27.721Z,64.48
2019-02-06T18:39:34.788Z,64.02
2019-02-06T18:42:40.725Z,63.98
2019-02-06T18:45:47.027Z,64.01
2019-02-06T18:48:52.815Z,64.31
2019-02-06T18:51:58.818Z,64.30
2019-02-06T18:55:05.872Z,64.64
2019-02-06T18:58:12.981Z,64.76
2019-02-06T19:01:18.828Z,65.18
2019-02-06T19:04:25.318Z,64.96
2019-02-06T19:07:31.223Z,64.77
2019-02-06T19:10:38.313Z,65.04
2019-02-06T19:13:44.670Z,65.56
2019-02-06T19:16:50.831Z,65.19
2019-02-06T19:19:56.657Z,65.87
2019-02-06T19:23:02.680Z,65.42
2019-02-06T19:26:08.546Z,66.21
2019-02-06T19:29:14.609Z,66.12
2019-02-06T19:32:20.733Z,65.70
2019-02-06T19:35:26.633Z,66.30
2019-02-06T19:38:32.388Z,66.35
2019-02-06T19:41:38.633Z,65.85
2019-02-06T19:44:44.408Z,65.83
2019-02-06T19:47:50.364Z,65.18
2019-02-06T19:50:56.222Z,67.52
2019-02-06T19:54:02.016Z,66.63
2019-02-06T19:57:07.769Z,66.41
2019-02-06T20:00:23.724Z,65.99
2019-02-06T20:03:29.691Z,67.38
2019-02-06T20:06:35.640Z,66.50
2019-02-06T20:09:41.624Z,66.12
2019-02-06T20:12:47.789Z,65.83
2019-02-06T20:15:53.580Z,67.60
2019-02-06T20:18:59.452Z,67.47
2019-02-06T20:22:05.404Z,67.83
2019-02-06T20:25:11.427Z,67.93
2019-02-06T20:28:17.310Z,68.11
2019-02-06T20:31:23.228Z,67.48
2019-02-06T20:34:28.999Z,67.30
2019-02-06T20:37:34.787Z,67.71
2019-02-06T20:40:40.923Z,67.22
2019-02-06T20:43:46.696Z,67.89
2019-02-06T20:46:52.560Z,68.21
2019-02-06T20:49:58.331Z,67.31
2019-02-06T20:53:04.478Z,68.96
2019-02-06T20:56:10.394Z,68.66
2019-02-06T20:59:16.353Z,68.17
2019-02-06T21:02:22.147Z,67.33
2019-02-06T21:05:28.162Z,67.96
2019-02-06T21:08:33.975Z,67.33
2019-02-06T21:11:39.846Z,67.29
2019-02-06T21:14:45.911Z,68.01
2019-02-06T21:17:52.187Z,68.13
2019-02-06T21:20:57.942Z,68.02
2019-02-06T21:24:03.942Z,67.19
2019-02-06T21:27:09.698Z,66.97
2019-02-06T21:30:23.680Z,68.45
2019-02-06T21:33:29.505Z,67.84
2019-02-06T21:36:35.387Z,68.08
2019-02-06T21:39:41.574Z,67.09
2019-02-06T21:42:47.796Z,67.49
2019-02-06T21:45:53.591Z,67.40
2019-02-06T21:48:59.568Z,67.31
2019-02-06T21:52:05.594Z,66.22
2019-02-06T21:55:12.865Z,67.65
2019-02-06T21:58:18.679Z,67.06
2019-02-06T22:01:24.455Z,66.32
2019-02-06T22:04:30.263Z,67.84
2019-02-06T22:07:36.139Z,66.85
2019-02-06T22:10:42.416Z,66.90
2019-02-06T22:13:54.922Z,67.14
2019-02-06T22:16:55.727Z,66.94
2019-02-06T22:20:01.488Z,67.55
2019-02-06T22:23:07.560Z,67.41
2019-02-06T22:26:13.324Z,67.68
2019-02-06T22:29:19.292Z,67.53
2019-02-06T22:32:25.170Z,67.33
2019-02-06T22:35:31.052Z,67.46
2019-02-06T22:38:36.872Z,67.62
2019-02-06T22:41:43.997Z,67.91
2019-02-06T22:44:49.754Z,67.49
2019-02-06T22:47:55.585Z,69.92
2019-02-06T22:51:01.350Z,68.92
2019-02-06T22:54:07.226Z,70.44
2019-02-06T22:57:13.000Z,68.07
2019-02-06T23:00:53.418Z,69.29
2019-02-06T23:03:59.710Z,69.11
2019-02-06T23:07:07.247Z,68.94
2019-02-06T23:10:13.509Z,68.61
2019-02-06T23:13:19.472Z,68.52
2019-02-06T23:16:25.468Z,68.53
2019-02-06T23:19:31.346Z,67.18
2019-02-06T23:22:37.087Z,67.82
2019-02-06T23:25:43.266Z,67.31
2019-02-06T23:28:50.457Z,68.71
2019-02-06T23:31:56.305Z,67.25
2019-02-06T23:35:02.105Z,67.46
2019-02-06T23:38:07.980Z,67.55
2019-02-06T23:41:13.878Z,70.35
2019-02-06T23:44:28.553Z,71.42
2019-02-06T23:47:27.216Z,70.87
2019-02-06T23:50:34.460Z,69.41
2019-02-06T23:53:40.208Z,70.08
2019-02-06T23:56:46.646Z,69.00
2019-02-06T23:59:52.403Z,67.81
